Aérodrome :
LOGIN :

S'inscrire | Disclaimer

   EN    FR    IT 

 










Légende :    VFR   VFR Marginal   IFR   IFR Intensif   IFR Très Intensif
Visi : 
Plafond : 
>= 8 km
>= 3000ft
5 à 8 km
1000 à 3000 ft
1500m à 5 km
500 à 1000 ft
800 à 1500m
200 à 500 ft
< 800m
< 200 ft
Symboles :   Orages  Brouillard  Fortes neiges  Fortes précipitations  Vent > 20 kt
SIGMETs :   Divers  Orages  Givrage  Turbulence  Onde Orograph.  Cendres Volcan.







- Altitude de l'aérodrome : 137 ft
- Code IATA : ARN


ESSA - Stockholm-Arlanda

DERNIER METAR :
  • 211920Z 29005KT 7000 BKN004 11/10 Q0994 NOSIG

METARs EXPIRÉS :
  • 211850Z 33004KT 7000 DZ BKN004 11/11 Q0994 NOSIG
  • 211820Z 34006G17KT 9999 BKN004 11/10 Q0994 NOSIG
  • 211750Z 01005KT 350V050 9999 BKN005 11/11 Q0995 NOSIG
  • 211720Z 35005KT 9999 BKN006 12/11 Q0995 NOSIG
  • 211650Z 34006KT 9999 BKN006 12/11 Q0995 NOSIG

TAF TAF ESSA
Valide du 21 à 18h jusqu'au 22 à 18h UTC


211730Z 2118/2218 33006KT 9999 -RA BKN008
TEMPO 2118/2122 2500 SHRA BR BKN004 BKN030CB
TEMPO 2122/2206 4000 SHRA BKN015 BKN020CB
BECMG 2200/2202 33015G28KT
BECMG 2206/2208 SCT018 BKN040
BECMG 2212/2214 27008KT
Pas de NOTAMs connus pour ce terrain.



MET'MAP, la Météo Aéronautique d'un coup d'oeil ! - Copyright ORBIFLY Décembre 2007 - Disclaimer

ORBIFLY MET'MAP TEAM :

Programmation & Développement : Alexandra Zaïnal
Conception & Développement : Baudouin d'Aumeries
Co-Programmation & Développement : Marc-Olivier Méhu
Soutien technique & logistique : Manuel Goepfert

Contact : metmap@orbifly.com




SOURCES & CREDITS :

   NOAA